Time;durP1;ratioP1;P1;durP2;ratioP2;P2;SDS_P1;SDS_P2;PMS_P1;PMS_P2;Temp;Humidity;BMP_temperature;BMP_pressure;BME280_temperature;BME280_humidity;BME280_pressure;Samples;Min_cycle;Max_cycle;Signal;HPM_P1;HPM_P2
2022/03/23 00:00:52;;;;;;;;;;;;;;;16.94;56.37;103173.72;6292547;22;19911;-83
2022/03/23 00:03:18;;;;;;;;;;;;;;;16.93;56.34;103176.25;6320047;22;19918;-85
2022/03/23 00:05:44;;;;;;;;;;;;;;;16.94;56.66;103180.63;6295775;22;19962;-83
2022/03/23 00:08:09;;;;;;;;;;;;;;;16.94;56.21;103178.00;6320957;22;19907;-83
2022/03/23 00:10:35;;;;;;;;;;;;;;;16.93;56.47;103177.13;6321630;22;19907;-82
2022/03/23 00:13:01;;;;;;;;;;;;;;;16.93;56.76;103173.66;6321005;22;19906;-84
2022/03/23 00:15:27;;;;;;;;;;;;;;;16.93;56.29;103178.88;6321892;22;19906;-84
2022/03/23 00:17:53;;;;;;;;;;;;;;;16.94;56.63;103178.91;6349772;22;19921;-84
2022/03/23 00:20:19;;;;;;;;;;;;;;;16.93;56.60;103177.13;6293323;22;19911;-84
2022/03/23 00:22:44;;;;;;;;;;;;;;;16.93;56.02;103181.47;6319096;22;19926;-83
2022/03/23 00:25:09;;;;;;;;;;;;;;;16.92;56.42;103179.69;6293167;22;19915;-82
2022/03/23 00:27:35;;;;;;;;;;;;;;;16.93;56.09;103184.06;6318120;22;19906;-82
2022/03/23 00:30:01;;;;;;;;;;;;;;;16.92;56.13;103183.19;6319192;22;19938;-83
2022/03/23 00:32:26;;;;;;;;;;;;;;;16.92;56.24;103179.69;6317616;22;19953;-83
2022/03/23 00:34:52;;;;;;;;;;;;;;;16.91;56.06;103180.53;6317800;22;19914;-83
2022/03/23 00:37:17;;;;;;;;;;;;;;;16.92;56.57;103177.09;6347969;22;19960;-84
2022/03/23 00:39:42;;;;;;;;;;;;;;;16.91;56.17;103178.81;6320120;22;19941;-83
2022/03/23 00:42:08;;;;;;;;;;;;;;;16.91;56.08;103173.59;6347315;22;19906;-83
2022/03/23 00:44:33;;;;;;;;;;;;;;;16.92;55.98;103175.38;6293127;22;19921;-82
2022/03/23 00:46:58;;;;;;;;;;;;;;;16.91;56.00;103167.53;6348035;22;19960;-83
2022/03/23 00:49:23;;;;;;;;;;;;;;;16.91;56.01;103168.41;6297590;22;20396;-83
2022/03/23 00:51:53;;;;;;;;;;;;;;;16.91;56.11;103175.34;6324500;22;19917;-83
2022/03/23 00:54:18;;;;;;;;;;;;;;;16.91;56.11;103172.72;6352485;22;19907;-83
2022/03/23 00:56:43;;;;;;;;;;;;;;;16.90;56.24;103171.84;6325391;22;19918;-83
2022/03/23 00:59:11;;;;;;;;;;;;;;;16.91;56.06;103173.59;6298361;22;19911;-83
2022/03/23 01:01:38;;;;;;;;;;;;;;;16.90;56.14;103169.25;6352438;22;19911;-83
2022/03/23 01:04:03;;;;;;;;;;;;;;;16.89;55.75;103164.00;6298481;22;19919;-83
2022/03/23 01:06:28;;;;;;;;;;;;;;;16.90;55.87;103166.66;6351780;22;19907;-83
2022/03/23 01:08:54;;;;;;;;;;;;;;;16.90;55.68;103163.16;6323045;22;19993;-84
2022/03/23 01:11:19;;;;;;;;;;;;;;;16.89;56.12;103158.78;6299835;22;19963;-83
2022/03/23 01:13:45;;;;;;;;;;;;;;;16.88;55.96;103163.13;6324800;22;20242;-83
2022/03/23 01:16:13;;;;;;;;;;;;;;;16.88;55.76;103160.53;6323071;22;20243;-82
2022/03/23 01:18:38;;;;;;;;;;;;;;;16.89;55.68;103161.41;6325224;22;19910;-83
2022/03/23 01:21:03;;;;;;;;;;;;;;;16.89;55.54;103164.00;6322099;22;20028;-82
2022/03/23 01:23:29;;;;;;;;;;;;;;;16.89;55.75;103172.69;6323666;22;19915;-83
2022/03/23 01:25:54;;;;;;;;;;;;;;;16.89;55.41;103167.47;6325122;22;19914;-83
2022/03/23 01:28:19;;;;;;;;;;;;;;;16.88;55.55;103163.13;6352884;22;20230;-83
2022/03/23 01:30:45;;;;;;;;;;;;;;;16.86;55.66;103157.00;6299306;22;19910;-83
2022/03/23 01:33:10;;;;;;;;;;;;;;;16.87;55.61;103158.75;6352205;22;19910;-83
2022/03/23 01:35:35;;;;;;;;;;;;;;;16.87;55.83;103161.34;6301398;22;19911;-84
2022/03/23 01:38:00;;;;;;;;;;;;;;;16.88;55.91;103157.94;6324400;22;19906;-84
2022/03/23 01:40:26;;;;;;;;;;;;;;;16.88;55.53;103154.44;6299906;22;19918;-83
2022/03/23 01:42:51;;;;;;;;;;;;;;;16.86;55.22;103155.25;6326772;22;19906;-82
2022/03/23 01:45:16;;;;;;;;;;;;;;;16.86;55.39;103154.38;6323165;22;19917;-83
2022/03/23 01:47:42;;;;;;;;;;;;;;;16.86;55.27;103144.00;6324860;22;19911;-83
2022/03/23 01:50:07;;;;;;;;;;;;;;;16.86;55.33;103154.38;6325119;22;19906;-83
2022/03/23 01:52:33;;;;;;;;;;;;;;;16.86;55.24;103154.38;6352958;22;19930;-82
2022/03/23 01:55:01;;;;;;;;;;;;;;;16.86;55.30;103157.00;6352128;22;19907;-82
2022/03/23 01:57:26;;;;;;;;;;;;;;;16.85;54.95;103150.00;6323472;22;19907;-83
2022/03/23 01:59:51;;;;;;;;;;;;;;;16.84;55.19;103146.53;6322965;22;19989;-83
2022/03/23 02:02:17;;;;;;;;;;;;;;;16.83;55.02;103142.19;6351479;22;20004;-82
2022/03/23 02:04:42;;;;;;;;;;;;;;;16.84;55.52;103151.72;6328139;22;19988;-83
2022/03/23 02:07:07;;;;;;;;;;;;;;;16.84;55.09;103143.06;6328761;22;19964;-83
2022/03/23 02:09:33;;;;;;;;;;;;;;;16.83;55.17;103136.06;6324749;22;19937;-83
2022/03/23 02:12:01;;;;;;;;;;;;;;;16.83;54.95;103133.47;6300046;22;19940;-82
2022/03/23 02:14:26;;;;;;;;;;;;;;;16.83;55.28;103136.06;6351753;22;19906;-83
2022/03/23 02:16:52;;;;;;;;;;;;;;;16.84;55.32;103140.47;6350552;22;20315;-83
2022/03/23 02:19:18;;;;;;;;;;;;;;;16.84;55.00;103137.84;6324336;22;19959;-84
2022/03/23 02:21:44;;;;;;;;;;;;;;;16.84;54.89;103141.34;6297183;22;19917;-82
2022/03/23 02:24:09;;;;;;;;;;;;;;;16.82;54.95;103135.19;6322062;22;19925;-84
2022/03/23 02:26:37;;;;;;;;;;;;;;;16.83;54.69;103136.06;6297608;22;20307;-83
2022/03/23 02:29:02;;;;;;;;;;;;;;;16.83;55.09;103139.59;6322559;22;19907;-83
2022/03/23 02:31:27;;;;;;;;;;;;;;;16.83;54.83;103133.47;6322740;22;19918;-83
2022/03/23 02:33:53;;;;;;;;;;;;;;;16.82;54.49;103145.59;6298049;22;19983;-83
2022/03/23 02:36:18;;;;;;;;;;;;;;;16.82;54.90;103134.31;6322306;22;19918;-84
2022/03/23 02:38:43;;;;;;;;;;;;;;;16.81;54.69;103129.94;6324775;22;19907;-82
2022/03/23 02:41:09;;;;;;;;;;;;;;;16.82;54.73;103137.81;6324847;22;19967;-83
2022/03/23 02:43:34;;;;;;;;;;;;;;;16.81;54.35;103133.44;6325621;22;19941;-83
2022/03/23 02:45:59;;;;;;;;;;;;;;;16.82;54.51;103135.19;6352711;22;19906;-83
2022/03/23 02:48:25;;;;;;;;;;;;;;;16.81;54.51;103133.44;6350013;22;19914;-84
2022/03/23 02:50:50;;;;;;;;;;;;;;;16.82;54.59;103137.81;6351436;22;19910;-83
2022/03/23 03:01:56;;;;;;;;;;;;;;;16.82;54.27;103131.72;6355195;22;19933;-83
2022/03/23 03:04:23;;;;;;;;;;;;;;;16.80;54.26;103134.28;6261165;22;19910;-78
2022/03/23 03:06:49;;;;;;;;;;;;;;;16.80;54.19;103138.59;6341550;22;19914;-78
2022/03/23 03:09:15;;;;;;;;;;;;;;;16.80;54.01;103139.47;6314321;22;19964;-78
2022/03/23 03:11:41;;;;;;;;;;;;;;;16.80;53.97;103133.41;6343676;22;19907;-83
2022/03/23 03:14:06;;;;;;;;;;;;;;;16.79;53.94;103137.69;6300601;22;20323;-83
2022/03/23 03:16:32;;;;;;;;;;;;;;;16.80;54.10;103138.59;6325319;22;19915;-82
2022/03/23 03:18:57;;;;;;;;;;;;;;;16.80;53.92;103136.88;6323465;22;19911;-83
2022/03/23 03:21:22;;;;;;;;;;;;;;;16.80;54.00;103139.47;6324265;22;20005;-83
2022/03/23 03:23:48;;;;;;;;;;;;;;;16.79;53.95;103142.00;6350863;22;19915;-83
2022/03/23 03:26:14;;;;;;;;;;;;;;;16.79;53.76;103142.00;6352149;22;19911;-84
2022/03/23 03:28:40;;;;;;;;;;;;;;;16.79;53.84;103139.41;6353626;22;19913;-83
2022/03/23 03:31:07;;;;;;;;;;;;;;;16.79;53.81;103145.50;6326150;22;20315;-86
2022/03/23 03:33:32;;;;;;;;;;;;;;;16.79;53.70;103142.00;6352160;22;19906;-84
2022/03/23 03:35:58;;;;;;;;;;;;;;;16.79;53.89;103145.50;6350056;22;19934;-83
2022/03/23 03:38:23;;;;;;;;;;;;;;;16.78;53.80;103141.09;6350015;22;19917;-83
2022/03/23 03:40:48;;;;;;;;;;;;;;;16.78;53.73;103141.09;6321272;22;19914;-84
2022/03/23 03:43:16;;;;;;;;;;;;;;;16.77;53.77;103149.75;6351389;22;19956;-83
2022/03/23 03:45:41;;;;;;;;;;;;;;;16.78;53.77;103145.44;6324788;22;19912;-82
2022/03/23 03:48:07;;;;;;;;;;;;;;;16.78;53.58;103154.09;6324144;22;19913;-83
2022/03/23 03:50:32;;;;;;;;;;;;;;;16.78;53.61;103154.09;6300560;22;19915;-83
2022/03/23 03:52:57;;;;;;;;;;;;;;;16.77;53.53;103151.47;6301815;22;19907;-83
2022/03/23 03:55:22;;;;;;;;;;;;;;;16.77;53.56;103144.56;6354297;22;19907;-82
2022/03/23 03:57:47;;;;;;;;;;;;;;;16.77;53.74;103154.97;6326546;22;19914;-83
2022/03/23 04:00:14;;;;;;;;;;;;;;;16.77;53.43;103154.09;6326536;22;19911;-84
2022/03/23 04:02:40;;;;;;;;;;;;;;;16.78;53.33;103153.22;6328117;22;19967;-83
2022/03/23 04:05:05;;;;;;;;;;;;;;;16.77;53.47;103159.28;6329597;22;20002;-83
2022/03/23 04:07:34;;;;;;;;;;;;;;;16.78;53.31;103153.22;6332047;22;19910;-83
2022/03/23 04:09:59;;;;;;;;;;;;;;;16.78;53.31;103161.03;6358528;22;19911;-83
2022/03/23 04:12:25;;;;;;;;;;;;;;;16.76;53.44;103160.97;6327065;22;19911;-84
2022/03/23 04:14:51;;;;;;;;;;;;;;;16.75;53.24;103158.34;6344632;22;19930;-77
2022/03/23 04:17:16;;;;;;;;;;;;;;;16.76;53.20;103165.31;6341268;22;19941;-78
2022/03/23 04:19:41;;;;;;;;;;;;;;;16.77;53.43;103159.28;6313573;22;19930;-78
2022/03/23 04:22:06;;;;;;;;;;;;;;;16.76;53.25;103155.78;6287317;22;19971;-77
2022/03/23 04:24:32;;;;;;;;;;;;;;;16.74;53.54;103161.78;6287277;22;20007;-77
2022/03/23 04:26:58;;;;;;;;;;;;;;;16.74;53.29;103157.44;6287377;22;19911;-79
2022/03/23 04:29:24;;;;;;;;;;;;;;;16.76;53.15;103160.09;6287526;22;19917;-77
2022/03/23 04:31:50;;;;;;;;;;;;;;;16.74;53.06;103162.66;6340647;22;19910;-78
2022/03/23 04:34:15;;;;;;;;;;;;;;;16.76;53.06;103166.19;6312547;22;20242;-78
2022/03/23 04:36:40;;;;;;;;;;;;;;;16.75;53.12;103163.56;6312799;22;19910;-78
2022/03/23 04:39:05;;;;;;;;;;;;;;;16.74;53.17;103167.84;6312697;22;19907;-77
2022/03/23 04:41:31;;;;;;;;;;;;;;;16.74;53.01;103160.03;6286566;22;19985;-77
2022/03/23 04:43:56;;;;;;;;;;;;;;;16.74;53.01;103167.84;6286845;22;19915;-77
2022/03/23 04:46:21;;;;;;;;;;;;;;;16.73;52.90;103168.69;6312812;22;20379;-77
2022/03/23 04:48:46;;;;;;;;;;;;;;;16.74;52.84;103173.03;6340509;22;20212;-78
2022/03/23 04:51:12;;;;;;;;;;;;;;;16.74;52.96;103177.38;6312589;22;19915;-78
2022/03/23 04:53:38;;;;;;;;;;;;;;;16.73;53.18;103176.50;6340647;22;19907;-77
2022/03/23 04:56:03;;;;;;;;;;;;;;;16.74;52.88;103166.97;6286705;22;19964;-77
2022/03/23 04:58:29;;;;;;;;;;;;;;;16.73;53.10;103170.41;6340272;22;19910;-77
2022/03/23 05:00:55;;;;;;;;;;;;;;;16.73;52.79;103170.41;6313345;22;20242;-77
2022/03/23 05:03:20;;;;;;;;;;;;;;;16.73;52.99;103178.22;6286839;22;19910;-78
2022/03/23 05:05:46;;;;;;;;;;;;;;;16.74;52.80;103177.38;6286824;22;19917;-78
2022/03/23 05:08:11;;;;;;;;;;;;;;;16.73;52.77;103175.63;6313065;22;20251;-78
2022/03/23 05:10:36;;;;;;;;;;;;;;;16.73;52.87;103183.41;6286811;22;20242;-80
2022/03/23 05:13:01;;;;;;;;;;;;;;;16.73;52.81;103180.81;6290722;22;20325;-84
2022/03/23 05:15:27;;;;;;;;;;;;;;;16.72;52.83;103181.63;6308240;22;19903;-83
2022/03/23 05:17:52;;;;;;;;;;;;;;;16.73;52.73;103183.41;6304115;22;19946;-84
2022/03/23 05:20:18;;;;;;;;;;;;;;;16.72;52.64;103185.13;6312018;22;19941;-84
2022/03/23 05:22:43;;;;;;;;;;;;;;;16.73;52.61;103183.41;6338823;22;20376;-85
2022/03/23 05:25:09;;;;;;;;;;;;;;;16.72;52.78;103179.91;6336999;22;19911;-85
2022/03/23 05:27:35;;;;;;;;;;;;;;;16.72;52.40;103184.25;6365871;22;19906;-85
2022/03/23 05:30:00;;;;;;;;;;;;;;;16.72;52.39;103185.13;6338787;22;19898;-85
2022/03/23 05:32:26;;;;;;;;;;;;;;;16.73;52.53;103191.22;6337712;22;19906;-81
2022/03/23 05:34:51;;;;;;;;;;;;;;;16.72;52.55;103187.72;6289453;22;19958;-81
2022/03/23 05:37:17;;;;;;;;;;;;;;;16.71;52.39;103185.97;6289358;22;19911;-80
2022/03/23 05:39:43;;;;;;;;;;;;;;;16.73;52.24;103181.69;6319332;22;19910;-81
2022/03/23 05:42:08;;;;;;;;;;;;;;;16.73;52.14;103188.63;6319938;22;19914;-81
2022/03/23 05:44:34;;;;;;;;;;;;;;;16.73;52.38;103194.69;6319978;22;19964;-80
2022/03/23 05:46:59;;;;;;;;;;;;;;;16.74;51.99;103187.78;6316011;22;19907;-80
2022/03/23 05:49:24;;;;;;;;;;;;;;;16.75;52.12;103195.63;6314816;22;19915;-81
2022/03/23 05:51:50;;;;;;;;;;;;;;;16.74;51.83;103192.97;6288524;22;19917;-80
2022/03/23 05:54:16;;;;;;;;;;;;;;;16.76;51.76;103196.50;6314592;22;19911;-80
2022/03/23 05:56:41;;;;;;;;;;;;;;;16.77;51.89;103198.28;6313926;22;19907;-80
2022/03/23 05:59:08;;;;;;;;;;;;;;;16.78;51.82;103197.44;6321361;22;19914;-84
2022/03/23 06:01:34;;;;;;;;;;;;;;;16.79;51.58;103204.41;6346411;22;19907;-82
2022/03/23 06:04:00;;;;;;;;;;;;;;;16.79;51.61;103204.41;6297664;22;19953;-83
2022/03/23 06:06:25;;;;;;;;;;;;;;;16.79;51.71;103202.69;6321356;22;19906;-84
2022/03/23 06:08:51;;;;;;;;;;;;;;;16.80;51.69;103207.09;6297967;22;19911;-84
2022/03/23 06:11:16;;;;;;;;;;;;;;;16.80;51.67;103204.47;6299633;22;19917;-83
2022/03/23 06:13:41;;;;;;;;;;;;;;;16.85;52.09;103205.53;6318844;22;19914;-83
2022/03/23 06:16:07;;;;;;;;;;;;;;;16.88;51.66;103203.88;6321310;22;19906;-85
2022/03/23 06:18:32;;;;;;;;;;;;;;;16.85;52.03;103202.94;6351001;22;19911;-83
2022/03/23 06:20:58;;;;;;;;;;;;;;;17.00;51.20;103202.50;6324705;22;19911;-84
2022/03/23 06:23:24;;;;;;;;;;;;;;;17.12;50.47;103199.41;6344485;22;19922;-83
2022/03/23 06:25:49;;;;;;;;;;;;;;;17.19;50.36;103206.53;6342832;22;19915;-83
2022/03/23 06:28:15;;;;;;;;;;;;;;;17.24;50.14;103197.13;6315103;22;19911;-81
2022/03/23 06:30:40;;;;;;;;;;;;;;;17.28;50.08;103211.13;6314294;22;19907;-82
2022/03/23 06:33:05;;;;;;;;;;;;;;;17.32;49.95;103209.50;6287894;22;19914;-82
2022/03/23 06:35:30;;;;;;;;;;;;;;;17.34;49.63;103206.13;6288043;22;19918;-81
2022/03/23 06:37:56;;;;;;;;;;;;;;;17.37;49.49;103208.78;6314392;22;19910;-83
2022/03/23 06:40:22;;;;;;;;;;;;;;;17.41;49.71;103209.78;6314789;22;19917;-80
2022/03/23 06:42:47;;;;;;;;;;;;;;;17.45;49.61;103214.22;6314679;22;19913;-83
2022/03/23 06:45:12;;;;;;;;;;;;;;;17.51;49.36;103209.22;6323792;22;19915;-84
2022/03/23 06:47:38;;;;;;;;;;;;;;;17.63;49.18;103204.31;6320507;22;19985;-87
2022/03/23 06:50:03;;;;;;;;;;;;;;;17.81;48.85;103209.19;6295262;22;19910;-88
2022/03/23 06:52:28;;;;;;;;;;;;;;;18.13;48.05;103218.72;6318357;22;20342;-89
2022/03/23 06:54:54;;;;;;;;;;;;;;;18.45;47.12;103214.31;6316577;22;20311;-89
2022/03/23 06:57:19;;;;;;;;;;;;;;;18.67;46.64;103214.00;6314306;22;19910;-85
2022/03/23 06:59:44;;;;;;;;;;;;;;;18.83;46.21;103215.25;6313340;22;20374;-84
2022/03/23 07:02:10;;;;;;;;;;;;;;;19.03;45.85;103218.34;6287540;22;20238;-79
2022/03/23 07:04:36;;;;;;;;;;;;;;;19.03;45.79;103214.81;6313608;22;20012;-77
2022/03/23 07:07:01;;;;;;;;;;;;;;;18.98;46.47;103222.56;6340726;22;20319;-75
2022/03/23 07:09:32;;;;;;;;;;;;;;;18.99;46.79;103220.81;6313002;22;20337;-77
2022/03/23 07:11:58;;;;;;;;;;;;;;;18.96;47.23;103225.97;6314366;22;19911;-79
2022/03/23 07:14:23;;;;;;;;;;;;;;;18.95;47.24;103226.84;6287324;22;19917;-78
2022/03/23 07:16:49;;;;;;;;;;;;;;;18.99;47.45;103232.16;6313179;22;20315;-79
2022/03/23 07:19:14;;;;;;;;;;;;;;;19.02;47.81;103231.34;6287044;22;19990;-79
2022/03/23 07:21:39;;;;;;;;;;;;;;;19.00;48.09;103228.69;6313093;22;19910;-79
2022/03/23 07:24:05;;;;;;;;;;;;;;;19.02;48.01;103231.34;6312653;22;19918;-80
2022/03/23 07:26:30;;;;;;;;;;;;;;;19.01;47.14;103232.16;6287104;22;19917;-81
2022/03/23 07:28:56;;;;;;;;;;;;;;;19.04;46.86;103232.25;6313218;22;19921;-79
2022/03/23 07:31:21;;;;;;;;;;;;;;;19.03;46.80;103241.81;6287292;22;19956;-79
2022/03/23 07:33:47;;;;;;;;;;;;;;;19.08;46.90;103239.31;6313010;22;20295;-86
2022/03/23 07:36:12;;;;;;;;;;;;;;;19.11;46.73;103236.75;6341341;22;19949;-85
2022/03/23 07:38:38;;;;;;;;;;;;;;;19.13;46.26;103231.59;6340770;22;19910;-84
2022/03/23 07:41:03;;;;;;;;;;;;;;;19.16;46.17;103231.63;6341108;22;19925;-84
2022/03/23 07:43:28;;;;;;;;;;;;;;;19.13;46.30;103232.47;6313189;22;19917;-85
2022/03/23 07:45:53;;;;;;;;;;;;;;;19.18;46.59;103224.72;6287207;22;19910;-84
2022/03/23 07:48:20;;;;;;;;;;;;;;;19.15;46.78;103230.75;6287331;22;19911;-85
2022/03/23 07:50:46;;;;;;;;;;;;;;;19.12;46.41;103238.53;6287431;22;19994;-85
2022/03/23 07:53:11;;;;;;;;;;;;;;;18.73;47.17;103238.44;6287279;22;19917;-83
2022/03/23 07:55:36;;;;;;;;;;;;;;;18.30;48.77;103241.75;6286991;22;20239;-86
2022/03/23 07:58:01;;;;;;;;;;;;;;;18.21;49.69;103251.97;6313121;22;19911;-84
2022/03/23 08:00:27;;;;;;;;;;;;;;;18.20;49.99;103239.75;6313588;22;19960;-81
2022/03/23 08:02:52;;;;;;;;;;;;;;;18.62;48.18;103240.81;6313306;22;19914;-84
2022/03/23 08:05:17;;;;;;;;;;;;;;;18.88;48.01;103244.97;6286818;22;19914;-84
2022/03/23 08:07:43;;;;;;;;;;;;;;;18.81;48.04;103242.16;6287146;22;19914;-85
2022/03/23 08:10:09;;;;;;;;;;;;;;;18.73;48.34;103246.25;6287316;22;20220;-85
2022/03/23 08:12:34;;;;;;;;;;;;;;;18.68;48.19;103248.78;6313145;22;19989;-84
2022/03/23 08:14:59;;;;;;;;;;;;;;;18.66;48.25;103246.16;6314156;22;19906;-85
2022/03/23 08:17:25;;;;;;;;;;;;;;;18.67;47.91;103241.81;6287408;22;19910;-84
2022/03/23 08:20:32;;;;;;;;;;;;;;;18.65;47.70;103246.09;6287824;22;19910;-86
2022/03/23 08:22:35;;;;;;;;;;;;;;;18.61;48.31;103245.13;6318890;22;19919;-85
2022/03/23 08:25:00;;;;;;;;;;;;;;;18.58;47.97;103247.69;6313444;22;19915;-85
2022/03/23 08:27:26;;;;;;;;;;;;;;;18.57;47.94;103247.63;6287565;22;19911;-85
2022/03/23 08:29:52;;;;;;;;;;;;;;;18.54;47.98;103245.84;6287542;22;19938;-85
2022/03/23 08:32:17;;;;;;;;;;;;;;;18.52;48.07;103247.53;6312997;22;19910;-84
2022/03/23 08:34:42;;;;;;;;;;;;;;;18.50;47.82;103241.38;6340442;22;19921;-84
2022/03/23 08:37:07;;;;;;;;;;;;;;;18.48;47.95;103249.16;6287093;22;20251;-84
2022/03/23 08:39:33;;;;;;;;;;;;;;;18.46;47.65;103244.75;6312827;22;19932;-85
2022/03/23 08:41:58;;;;;;;;;;;;;;;18.41;49.20;103244.66;6286753;22;19981;-85
2022/03/23 08:44:23;;;;;;;;;;;;;;;18.41;48.83;103242.03;6286878;22;19987;-85
2022/03/23 08:46:48;;;;;;;;;;;;;;;18.37;48.92;103250.63;6340531;22;19914;-85
2022/03/23 08:49:14;;;;;;;;;;;;;;;18.35;48.64;103241.00;6313068;22;19938;-85
2022/03/23 08:51:39;;;;;;;;;;;;;;;18.34;48.57;103252.28;6313056;22;20307;-86
2022/03/23 08:54:04;;;;;;;;;;;;;;;18.33;49.18;103247.91;6312964;22;19918;-85
2022/03/23 08:56:29;;;;;;;;;;;;;;;18.30;48.80;103248.72;6340414;22;19910;-84
2022/03/23 08:58:55;;;;;;;;;;;;;;;18.29;49.05;103253.03;6340461;22;19907;-84
2022/03/23 09:01:20;;;;;;;;;;;;;;;18.29;49.17;103254.75;6287073;22;19941;-86
2022/03/23 09:03:45;;;;;;;;;;;;;;;18.26;49.32;103252.06;6312896;22;19922;-86
2022/03/23 09:06:11;;;;;;;;;;;;;;;18.26;49.50;103255.56;6286837;22;19910;-86
2022/03/23 09:08:36;;;;;;;;;;;;;;;18.26;48.79;103252.94;6288406;22;20374;-87
2022/03/23 09:11:01;;;;;;;;;;;;;;;18.27;49.00;103257.34;6315962;22;19910;-87
2022/03/23 09:13:27;;;;;;;;;;;;;;;18.29;49.90;103258.25;6346789;22;19949;-86
2022/03/23 09:15:52;;;;;;;;;;;;;;;18.26;49.40;103258.16;6292120;22;19968;-87
2022/03/23 09:18:17;;;;;;;;;;;;;;;18.25;49.58;103258.13;6289399;22;19910;-86
2022/03/23 09:20:42;;;;;;;;;;;;;;;18.25;49.77;103261.63;6315386;22;19918;-86
2022/03/23 09:23:08;;;;;;;;;;;;;;;18.25;49.89;103261.63;6289125;22;20239;-86
2022/03/23 09:25:34;;;;;;;;;;;;;;;18.23;50.06;103258.09;6315070;22;19986;-86
2022/03/23 09:27:59;;;;;;;;;;;;;;;18.22;49.93;103258.91;6289187;22;20332;-86
2022/03/23 09:30:24;;;;;;;;;;;;;;;18.22;50.02;103256.31;6314815;22;19981;-85
2022/03/23 09:32:50;;;;;;;;;;;;;;;18.20;50.16;103252.78;6315155;22;19906;-86
2022/03/23 09:35:16;;;;;;;;;;;;;;;18.20;49.98;103255.38;6342458;22;19906;-85
2022/03/23 09:37:48;;;;;;;;;;;;;;;18.18;50.30;103250.97;6342355;22;19907;-85
2022/03/23 09:40:16;;;;;;;;;;;;;;;18.19;50.27;103255.38;6342071;22;19946;-85
2022/03/23 09:42:42;;;;;;;;;;;;;;;18.17;50.06;103250.09;6314760;22;19926;-85
2022/03/23 09:45:07;;;;;;;;;;;;;;;18.17;50.02;103251.84;6342116;22;19972;-85
2022/03/23 09:47:33;;;;;;;;;;;;;;;18.16;49.73;103247.44;6289011;22;20388;-85
2022/03/23 09:49:58;;;;;;;;;;;;;;;18.15;49.84;103246.56;6344443;22;19906;-86
2022/03/23 09:52:24;;;;;;;;;;;;;;;18.18;49.69;103245.78;6321263;22;19914;-85
2022/03/23 09:54:49;;;;;;;;;;;;;;;18.17;49.05;103252.72;6319039;22;19914;-85
2022/03/23 09:57:14;;;;;;;;;;;;;;;18.20;48.25;103254.50;6290059;22;19910;-85
2022/03/23 09:59:40;;;;;;;;;;;;;;;18.17;49.49;103246.63;6289049;22;19910;-79
2022/03/23 10:02:06;;;;;;;;;;;;;;;18.21;48.01;103251.97;6313945;22;19941;-79
2022/03/23 10:04:43;;;;;;;;;;;;;;;18.19;48.34;103247.56;6313604;22;19910;-79
2022/03/23 10:07:15;;;;;;;;;;;;;;;18.18;47.84;103250.97;6313768;22;20239;-79
2022/03/23 10:09:40;;;;;;;;;;;;;;;18.20;47.56;103252.78;6315205;22;19907;-80
2022/03/23 10:12:23;;;;;;;;;;;;;;;18.17;48.74;103254.44;6342275;22;20342;-80
2022/03/23 10:15:07;;;;;;;;;;;;;;;18.18;47.32;103254.50;6316173;22;19914;-80
2022/03/23 10:17:33;;;;;;;;;;;;;;;18.17;47.99;103254.44;6341416;22;20394;-79
2022/03/23 10:19:59;;;;;;;;;;;;;;;18.16;47.94;103255.28;6340826;22;19985;-79
2022/03/23 10:22:28;;;;;;;;;;;;;;;18.14;48.22;103254.34;6313341;22;19928;-79
2022/03/23 10:24:53;;;;;;;;;;;;;;;18.11;48.20;103249.06;6341024;22;19967;-79
2022/03/23 10:27:22;;;;;;;;;;;;;;;18.11;48.25;103243.84;6313602;22;19915;-79
2022/03/23 10:29:49;;;;;;;;;;;;;;;18.12;48.27;103248.22;6288636;22;19960;-79
2022/03/23 10:32:15;;;;;;;;;;;;;;;18.09;48.27;103244.72;6341045;22;20235;-79
2022/03/23 10:34:45;;;;;;;;;;;;;;;18.08;48.09;103247.25;6313318;22;19913;-79
2022/03/23 10:37:12;;;;;;;;;;;;;;;18.09;47.84;103241.19;6313389;22;20286;-79
2022/03/23 10:39:38;;;;;;;;;;;;;;;18.09;47.96;103241.19;6340987;22;19910;-79
2022/03/23 10:42:08;;;;;;;;;;;;;;;18.07;47.89;103242.88;6313240;22;19956;-79
2022/03/23 10:44:33;;;;;;;;;;;;;;;18.09;47.72;103242.09;6313207;22;20238;-80
2022/03/23 10:46:58;;;;;;;;;;;;;;;18.09;47.75;103246.41;6340848;22;19940;-79
2022/03/23 10:49:37;;;;;;;;;;;;;;;18.09;47.67;103243.81;6287615;22;19910;-80
2022/03/23 10:52:06;;;;;;;;;;;;;;;18.10;47.58;103235.16;6313218;22;20072;-79
2022/03/23 10:54:32;;;;;;;;;;;;;;;18.09;47.53;103236.91;6313523;22;19917;-79
2022/03/23 10:56:58;;;;;;;;;;;;;;;18.09;47.46;103234.28;6287529;22;20064;-80
2022/03/23 10:59:25;;;;;;;;;;;;;;;18.09;47.50;103242.09;6287618;22;19950;-79
2022/03/23 11:01:55;;;;;;;;;;;;;;;18.11;47.37;103230.81;6313300;22;19913;-79
2022/03/23 11:04:21;;;;;;;;;;;;;;;18.10;47.29;103237.75;6313085;22;19964;-79
2022/03/23 11:06:46;;;;;;;;;;;;;;;18.11;47.25;103236.91;6312860;22;19907;-81
2022/03/23 11:15:46;;;;;;;;;;;;;;;18.11;47.16;103225.63;6340987;22;20255;-85
2022/03/23 11:17:44;;;;;;;;;;;;;;;18.15;46.56;103230.06;6341524;22;20258;-84
2022/03/23 11:20:10;;;;;;;;;;;;;;;18.15;46.36;103230.94;6313630;22;19907;-84
2022/03/23 11:22:35;;;;;;;;;;;;;;;18.16;46.12;103230.13;6287788;22;19923;-84
2022/03/23 11:25:00;;;;;;;;;;;;;;;18.16;46.01;103234.41;6313758;22;19914;-85
2022/03/23 11:27:26;;;;;;;;;;;;;;;18.17;45.91;103228.38;6287614;22;20323;-88
2022/03/23 11:29:53;;;;;;;;;;;;;;;18.18;45.78;103222.31;6341262;22;19906;-85
2022/03/23 11:32:24;;;;;;;;;;;;;;;18.18;45.67;103233.66;6313120;22;19943;-84
2022/03/23 11:34:50;;;;;;;;;;;;;;;18.19;45.59;103230.19;6313736;22;19914;-84
2022/03/23 11:37:16;;;;;;;;;;;;;;;18.20;45.36;103221.50;6341400;22;19906;-85
2022/03/23 11:39:42;;;;;;;;;;;;;;;18.19;45.33;103214.53;6312909;22;19963;-79
2022/03/23 11:42:08;;;;;;;;;;;;;;;18.22;45.37;103218.94;6313078;22;20316;-79
2022/03/23 11:44:36;;;;;;;;;;;;;;;18.21;45.25;103218.06;6287008;22;19918;-79
2022/03/23 11:47:05;;;;;;;;;;;;;;;18.23;44.94;103211.19;6312672;22;19910;-79
2022/03/23 11:49:45;;;;;;;;;;;;;;;18.23;44.86;103210.31;6340769;22;19906;-79
2022/03/23 11:52:10;;;;;;;;;;;;;;;18.23;44.97;103208.56;6315616;22;19917;-81
2022/03/23 11:57:25;;;;;;;;;;;;;;;18.24;44.89;103207.72;6344137;22;20027;-80
2022/03/23 11:59:50;;;;;;;;;;;;;;;18.25;44.67;103206.88;6315368;22;19902;-80
2022/03/23 12:02:16;;;;;;;;;;;;;;;18.25;44.71;103198.19;6342344;22;20375;-80
2022/03/23 12:04:41;;;;;;;;;;;;;;;18.26;44.55;103205.16;6313412;22;19980;-86
2022/03/23 12:07:07;;;;;;;;;;;;;;;18.25;44.61;103196.47;6340944;22;19934;-85
2022/03/23 12:09:34;;;;;;;;;;;;;;;18.26;44.31;103190.41;6341096;22;19989;-85
2022/03/23 12:12:00;;;;;;;;;;;;;;;18.28;44.31;103191.31;6314175;22;19956;-85
2022/03/23 12:14:29;;;;;;;;;;;;;;;18.27;44.49;103189.56;6287407;22;19914;-85
2022/03/23 12:16:57;;;;;;;;;;;;;;;18.29;44.34;103187.88;6313333;22;19911;-85
2022/03/23 12:19:24;;;;;;;;;;;;;;;18.31;44.18;103182.69;6313473;22;20063;-85
2022/03/23 12:21:55;;;;;;;;;;;;;;;18.32;44.07;103187.06;6287521;22;19918;-85
2022/03/23 12:24:36;;;;;;;;;;;;;;;18.33;44.06;103177.50;6340632;22;19914;-85
2022/03/23 12:27:05;;;;;;;;;;;;;;;18.35;43.95;103176.72;6312966;22;19910;-85
2022/03/23 12:29:33;;;;;;;;;;;;;;;18.36;44.06;103175.00;6340954;22;19906;-85
2022/03/23 12:32:06;;;;;;;;;;;;;;;18.35;44.01;103170.63;6315243;22;19907;-84
2022/03/23 12:34:35;;;;;;;;;;;;;;;18.35;43.94;103176.72;6341127;22;19917;-85
2022/03/23 12:37:16;;;;;;;;;;;;;;;18.38;43.95;103170.69;6313030;22;19946;-86
2022/03/23 12:39:44;;;;;;;;;;;;;;;18.38;44.04;103161.16;6313441;22;19906;-86
2022/03/23 12:42:12;;;;;;;;;;;;;;;18.39;43.86;103168.13;6340819;22;19907;-84
2022/03/23 12:44:37;;;;;;;;;;;;;;;18.39;43.77;103160.28;6313622;22;19918;-86
2022/03/23 12:47:14;;;;;;;;;;;;;;;18.41;43.62;103161.22;6291443;22;19910;-86